Main page
METAR-TAF:

METAR-TAF

Airports :

Cadjehoun Airport

Cotonou, Benin

latitude: 06-21N, longitude: 002-23E, elevation: 5 m

Current weather observation

The report was made 41 minutes ago, at 15:00 UTC
Wind 15 kt from the Southwest
Temperature 32°C
Humidity 71%
Pressure 1007 hPa
Visibility 10 km or more
Few clouds at a height of 1400 ft

METAR: DBBB 081500Z 23015KT 9999 FEW014 32/26 Q1007 NOSIG

Time: 16:41 (15:41 UTC)

Forecast

The report was made 4 hours and 41 minutes ago, at 11:00 UTC
Forecast valid from 08 at 12 UTC to 09 at 18 UTC
Wind 12 kt from the Southwest
Visibility 10 km or more
Scattered clouds at a height of 1200 ft
Temporary
from 08 at 15 UTC to 08 at 20 UTC
Broken clouds at a height of 1200 ft
Few clouds at a height of 2300 ft, Cumulonimbus.
Probability 30%
from 09 at 14 UTC to 09 at 18 UTC
Broken clouds at a height of 1200 ft
Few clouds at a height of 2300 ft, Cumulonimbus.
thunderstorm

TAF: DBBB 081100Z 0812/0918 22012KT 9999 SCT012 TEMPO 0815/0820 BKN012 FEW023CB PROB30 0914/0918 TS BKN012 FEW023CB

Weather observations and forecasts of more than 4000 airports (METAR and TAF reports).

The available stations are represented by yellow and red dots on the map.

Hover mouse over dot to see the name of the station.

Then click to see weather observations and forecasts.

To change the map : click on the green buttons with a black cross to zoom in, on the green button with a dash to zoom out, or on the green arrows for adjacent maps.


METAR-TAF: